createdAt,value
2023-11-30T00:00:29.500Z,94423.81
2023-11-30T00:05:33.175Z,94410.03
2023-11-30T00:10:35.631Z,94398.03
2023-11-30T00:15:38.437Z,94402.66
2023-11-30T00:20:45.662Z,94419.00
2023-11-30T00:25:49.450Z,94429.56
2023-11-30T00:30:52.292Z,94417.94
2023-11-30T00:35:54.848Z,94423.97
2023-11-30T00:40:57.275Z,94417.84
2023-11-30T00:46:06.814Z,94416.59
2023-11-30T00:51:15.035Z,94420.75
2023-11-30T00:56:18.438Z,94416.25
2023-11-30T01:01:21.077Z,94415.00
2023-11-30T01:06:23.554Z,94406.81
2023-11-30T01:11:26.652Z,94401.38
2023-11-30T01:16:29.457Z,94401.38
2023-11-30T01:21:32.805Z,94406.66
2023-11-30T01:26:35.331Z,94419.66
2023-11-30T01:31:38.254Z,94416.69
2023-11-30T01:36:42.480Z,94409.72
2023-11-30T01:41:44.956Z,94406.69
2023-11-30T01:46:47.701Z,94406.16
2023-11-30T01:51:50.873Z,94388.06
2023-11-30T01:56:53.456Z,94378.16
2023-11-30T02:01:56.116Z,94380.22
2023-11-30T02:07:01.919Z,94376.22
2023-11-30T02:12:04.650Z,94379.56
2023-11-30T02:17:08.188Z,94369.41
2023-11-30T02:22:10.790Z,94363.34
2023-11-30T02:27:13.719Z,94346.06
2023-11-30T02:32:18.448Z,94339.75
2023-11-30T02:37:21.837Z,94341.69
2023-11-30T02:42:24.329Z,94331.75
2023-11-30T02:47:27.439Z,94328.22
2023-11-30T02:52:30.256Z,94329.38
2023-11-30T02:57:33.139Z,94321.69
2023-11-30T03:02:36.030Z,94329.69
2023-11-30T03:07:38.532Z,94324.72
2023-11-30T03:12:41.402Z,94320.72
2023-11-30T03:17:45.485Z,94311.59
2023-11-30T03:22:48.413Z,94302.97
2023-11-30T03:27:51.117Z,94301.13
2023-11-30T03:32:53.596Z,94289.91
2023-11-30T03:37:56.310Z,94288.72
2023-11-30T03:42:58.974Z,94277.31
2023-11-30T03:48:01.459Z,94284.22
2023-11-30T03:53:04.250Z,94294.03
2023-11-30T03:58:07.153Z,94286.13
2023-11-30T04:03:09.643Z,94293.00
2023-11-30T04:08:12.254Z,94326.53
2023-11-30T04:13:17.126Z,94296.91
2023-11-30T04:18:19.721Z,94305.47
2023-11-30T04:23:22.964Z,94291.53
2023-11-30T04:28:26.632Z,94293.38
2023-11-30T04:33:29.143Z,94260.03
2023-11-30T04:38:32.841Z,94227.00
2023-11-30T04:43:37.450Z,94254.16
2023-11-30T04:48:42.248Z,94229.75
2023-11-30T04:53:45.173Z,94227.97
2023-11-30T04:58:47.871Z,94239.94
2023-11-30T05:03:50.669Z,94231.78
2023-11-30T05:08:53.942Z,94240.47
2023-11-30T05:13:56.436Z,94249.84
2023-11-30T05:19:00.082Z,94241.78
2023-11-30T05:24:02.879Z,94232.59
2023-11-30T05:29:06.038Z,94232.88
2023-11-30T05:34:08.689Z,94226.25
2023-11-30T05:39:11.423Z,94218.16
2023-11-30T05:44:14.257Z,94223.06
2023-11-30T05:49:16.885Z,94236.53
2023-11-30T05:54:19.500Z,94234.91
2023-11-30T05:59:22.462Z,94217.97
2023-11-30T06:04:25.040Z,94215.59
2023-11-30T06:09:28.708Z,94213.75
2023-11-30T06:14:31.264Z,94192.66
2023-11-30T06:19:36.220Z,94192.28
2023-11-30T06:24:38.887Z,94189.94
2023-11-30T06:29:41.342Z,94201.44
2023-11-30T06:34:43.830Z,94200.06
2023-11-30T06:39:46.522Z,94191.13
2023-11-30T06:44:49.208Z,94191.94
2023-11-30T06:49:51.895Z,94203.91
2023-11-30T06:54:54.952Z,94190.94
2023-11-30T06:59:57.788Z,94177.22
2023-11-30T07:05:05.849Z,94194.94
2023-11-30T07:10:08.537Z,94180.19
2023-11-30T07:15:11.791Z,94185.56
2023-11-30T07:20:14.262Z,94192.41
2023-11-30T07:25:16.732Z,94191.69
2023-11-30T07:30:19.621Z,94185.38
2023-11-30T07:35:22.071Z,94176.38
2023-11-30T07:40:24.891Z,94169.59
2023-11-30T07:45:27.614Z,94165.41
2023-11-30T07:50:30.478Z,94171.53
2023-11-30T07:55:34.402Z,94160.19
2023-11-30T08:00:37.242Z,94154.47
2023-11-30T08:05:40.529Z,94144.66
2023-11-30T08:10:43.349Z,94163.94
2023-11-30T08:15:46.046Z,94152.97
2023-11-30T08:20:49.322Z,94147.63
2023-11-30T08:25:52.514Z,94159.84
2023-11-30T08:30:55.186Z,94157.41
2023-11-30T08:35:58.118Z,94156.16
2023-11-30T08:41:03.170Z,94154.53
2023-11-30T08:46:06.346Z,94150.00
2023-11-30T08:51:09.691Z,94140.81
2023-11-30T08:56:12.145Z,94148.81
2023-11-30T09:01:15.082Z,94155.66
2023-11-30T09:06:17.731Z,94155.16
2023-11-30T09:11:20.333Z,94151.22
2023-11-30T09:16:24.465Z,94147.75
2023-11-30T09:21:27.613Z,94149.00
2023-11-30T09:26:31.158Z,94148.69
2023-11-30T09:31:34.480Z,94142.41
2023-11-30T09:36:37.928Z,94152.47
2023-11-30T09:41:40.948Z,94166.69
2023-11-30T09:46:43.891Z,94140.97
2023-11-30T09:51:46.763Z,94146.06
2023-11-30T09:56:49.263Z,94137.97
2023-11-30T10:01:52.069Z,94131.06
2023-11-30T10:06:54.697Z,94121.91
2023-11-30T10:11:57.089Z,94122.22
2023-11-30T10:16:59.668Z,94115.03
2023-11-30T10:22:02.702Z,94112.44
2023-11-30T10:27:05.729Z,94106.94
2023-11-30T10:32:08.400Z,94101.06
2023-11-30T10:37:10.924Z,94081.00
2023-11-30T10:42:14.427Z,94070.44
2023-11-30T10:47:17.172Z,94051.00
2023-11-30T10:52:20.641Z,94050.09
2023-11-30T10:57:23.792Z,94040.25
2023-11-30T11:02:26.686Z,94033.97
2023-11-30T11:07:29.235Z,94029.47
2023-11-30T11:12:32.224Z,94026.09
2023-11-30T11:17:35.149Z,94021.81
2023-11-30T11:22:37.989Z,94023.56
2023-11-30T11:27:41.482Z,94013.41
2023-11-30T11:32:44.451Z,94026.47
2023-11-30T11:37:48.350Z,94040.41
2023-11-30T11:42:51.849Z,94020.13
2023-11-30T11:47:55.686Z,94004.66
2023-11-30T11:52:58.215Z,94002.03
2023-11-30T11:58:00.909Z,93993.38
2023-11-30T12:03:03.335Z,94000.81
2023-11-30T12:08:14.402Z,93987.91
2023-11-30T12:13:17.830Z,93992.53
2023-11-30T12:18:22.304Z,93991.25
2023-11-30T12:23:25.998Z,93985.88
2023-11-30T12:28:28.692Z,93993.69
2023-11-30T12:33:31.622Z,93988.41
2023-11-30T12:38:34.469Z,93970.41
2023-11-30T12:43:37.711Z,93990.44
2023-11-30T12:48:40.355Z,93983.34
2023-11-30T12:53:43.308Z,93985.25
2023-11-30T12:58:46.316Z,93979.19
2023-11-30T13:03:49.173Z,93973.56
2023-11-30T13:08:52.520Z,93964.50
2023-11-30T13:13:56.212Z,93977.38
2023-11-30T13:18:58.889Z,93975.88
2023-11-30T13:24:01.766Z,93978.81
2023-11-30T13:29:05.164Z,93970.28
2023-11-30T13:34:09.856Z,93963.16
2023-11-30T13:39:12.533Z,93962.84
2023-11-30T13:44:16.200Z,93970.25
2023-11-30T13:49:20.092Z,93974.72
2023-11-30T13:54:23.553Z,93984.03
2023-11-30T13:59:26.570Z,93981.75
2023-11-30T14:04:29.137Z,93978.69
2023-11-30T14:09:33.012Z,93980.56
2023-11-30T14:14:37.239Z,93985.03
2023-11-30T14:19:40.240Z,93990.13
2023-11-30T14:24:43.822Z,93992.44
2023-11-30T14:29:46.398Z,93982.53
2023-11-30T14:34:50.444Z,93987.09
2023-11-30T14:39:55.760Z,93985.97
2023-11-30T14:44:59.074Z,93989.53
2023-11-30T14:50:01.901Z,93990.09
2023-11-30T14:55:05.062Z,93980.56
2023-11-30T15:00:11.627Z,93975.28
2023-11-30T15:05:16.375Z,93986.25
2023-11-30T15:10:18.934Z,94008.72
2023-11-30T15:15:21.587Z,94008.16
2023-11-30T15:20:26.046Z,93998.16
2023-11-30T15:25:28.538Z,94001.28
2023-11-30T15:30:31.092Z,94010.31
2023-11-30T15:35:33.753Z,94006.16
2023-11-30T15:40:37.358Z,94004.31
2023-11-30T15:45:40.654Z,94004.53
2023-11-30T15:50:45.807Z,93998.75
2023-11-30T15:55:48.460Z,93995.31
2023-11-30T16:00:51.480Z,93999.81
2023-11-30T16:05:53.983Z,94003.50
2023-11-30T16:10:56.603Z,93988.44
2023-11-30T16:15:59.225Z,93989.78
2023-11-30T16:21:01.793Z,93987.69
2023-11-30T16:26:04.477Z,93994.91
2023-11-30T16:31:07.012Z,94012.88
2023-11-30T16:36:10.066Z,94005.28
2023-11-30T16:41:12.663Z,94003.16
2023-11-30T16:46:15.208Z,94012.94
2023-11-30T16:51:18.025Z,94018.75
2023-11-30T16:56:22.713Z,94014.53
2023-11-30T17:01:25.291Z,94017.31
2023-11-30T17:06:27.719Z,94018.94
2023-11-30T17:11:31.420Z,94027.94
2023-11-30T17:16:34.198Z,94024.25
2023-11-30T17:21:36.971Z,94020.47
2023-11-30T17:26:40.201Z,94010.97
2023-11-30T17:31:43.326Z,94000.69
2023-11-30T17:36:47.185Z,94001.47
2023-11-30T17:41:49.742Z,94013.09
2023-11-30T17:46:54.230Z,94000.44
2023-11-30T17:51:57.244Z,94008.66
2023-11-30T17:57:00.743Z,94001.31
2023-11-30T18:02:03.476Z,94006.28
2023-11-30T18:07:10.750Z,94002.56
2023-11-30T18:12:14.514Z,93990.44
2023-11-30T18:17:17.911Z,93974.88
2023-11-30T18:22:20.305Z,93986.25
2023-11-30T18:27:23.595Z,93985.25
2023-11-30T18:32:26.078Z,93991.59
2023-11-30T18:37:29.480Z,93984.72
2023-11-30T18:42:32.268Z,93993.97
2023-11-30T18:47:38.058Z,93991.69
2023-11-30T18:52:40.464Z,94005.69
2023-11-30T18:57:43.104Z,93996.72
2023-11-30T19:02:45.618Z,93998.56
2023-11-30T19:07:48.250Z,93993.84
2023-11-30T19:12:50.629Z,93997.34
2023-11-30T19:17:53.833Z,93983.88
2023-11-30T19:22:59.120Z,93983.38
2023-11-30T19:28:02.368Z,93981.78
2023-11-30T19:33:05.520Z,93976.50
2023-11-30T19:38:08.094Z,93968.53
2023-11-30T19:43:10.934Z,93979.63
2023-11-30T19:48:14.819Z,93978.53
2023-11-30T19:53:18.257Z,93977.22
2023-11-30T19:58:20.920Z,93982.44
2023-11-30T20:03:26.016Z,93978.00
2023-11-30T20:08:29.113Z,93969.75
2023-11-30T20:13:32.189Z,93974.81
2023-11-30T20:18:35.903Z,93990.63
2023-11-30T20:23:40.002Z,93994.38
2023-11-30T20:28:42.770Z,93994.06
2023-11-30T20:33:48.049Z,93999.88
2023-11-30T20:38:53.070Z,93994.81
2023-11-30T20:43:57.687Z,94007.75
2023-11-30T20:49:00.339Z,94004.84
2023-11-30T20:54:07.503Z,94004.31
2023-11-30T20:59:12.316Z,94005.94
2023-11-30T21:04:15.537Z,94007.06
2023-11-30T21:09:18.949Z,94003.53
2023-11-30T21:14:22.112Z,94010.22
2023-11-30T21:19:24.960Z,94009.22
2023-11-30T21:24:30.463Z,94013.94
2023-11-30T21:29:32.993Z,94003.38
2023-11-30T21:34:35.700Z,94009.22
2023-11-30T21:39:38.452Z,94002.84
2023-11-30T21:44:43.413Z,94011.25
2023-11-30T21:49:46.356Z,94016.59
2023-11-30T21:54:48.982Z,94010.25
2023-11-30T21:59:53.527Z,94012.69
2023-11-30T22:04:56.408Z,94016.94
2023-11-30T22:10:01.754Z,94017.00
2023-11-30T22:15:04.652Z,94034.22
2023-11-30T22:20:08.741Z,94028.41
2023-11-30T22:25:11.641Z,94028.16
2023-11-30T22:30:14.845Z,94040.91
2023-11-30T22:35:17.992Z,94020.22
2023-11-30T22:40:22.510Z,94021.53
2023-11-30T22:45:25.340Z,94021.00
2023-11-30T22:50:30.204Z,94022.38
2023-11-30T22:55:32.817Z,94018.13
2023-11-30T23:00:36.062Z,94022.72
2023-11-30T23:05:39.937Z,94020.56
2023-11-30T23:10:42.616Z,94027.75
2023-11-30T23:15:45.933Z,94021.69
2023-11-30T23:20:48.635Z,94025.66
2023-11-30T23:25:51.277Z,94032.59
2023-11-30T23:30:53.879Z,94028.16
2023-11-30T23:35:56.875Z,94024.47
2023-11-30T23:40:59.428Z,94020.75
2023-11-30T23:46:04.104Z,94019.16
2023-11-30T23:51:06.673Z,94015.72
2023-11-30T23:56:09.116Z,94008.06
